Time;durP1;ratioP1;P1;durP2;ratioP2;P2;SDS_P1;SDS_P2;PMS_P1;PMS_P2;Temp;Humidity;BMP_temperature;BMP_pressure;BME280_temperature;BME280_humidity;BME280_pressure;Samples;Min_cycle;Max_cycle;Signal;HPM_P1;HPM_P2
2021/01/07 00:01:30;;;;;;;11.90;7.22;;;1.80;71.80;;;;;;6244382;23;20174;-70
2021/01/07 00:03:56;;;;;;;11.05;7.85;;;1.90;71.60;;;;;;6244336;23;20170;-68
2021/01/07 00:06:24;;;;;;;10.02;6.30;;;2.00;71.70;;;;;;6244254;23;20165;-72
2021/01/07 00:08:53;;;;;;;7.78;6.13;;;2.00;71.60;;;;;;6244665;23;20636;-67
2021/01/07 00:11:24;;;;;;;11.80;7.38;;;2.00;71.40;;;;;;6244876;23;20200;-68
2021/01/07 00:13:50;;;;;;;11.77;7.00;;;2.10;71.30;;;;;;6244744;23;20458;-68
2021/01/07 00:16:17;;;;;;;12.45;7.72;;;2.10;71.10;;;;;;6244685;23;20287;-68
2021/01/07 00:18:43;;;;;;;8.57;6.10;;;2.10;70.90;;;;;;6238083;23;20198;-68
2021/01/07 00:21:11;;;;;;;9.73;6.70;;;2.10;71.20;;;;;;6244261;23;21092;-68
2021/01/07 00:23:39;;;;;;;10.55;6.68;;;2.10;71.20;;;;;;6244003;23;20252;-69
2021/01/07 00:26:05;;;;;;;10.80;6.70;;;2.20;71.30;;;;;;6244214;23;20529;-69
2021/01/07 00:28:32;;;;;;;9.50;7.57;;;2.20;71.30;;;;;;6244101;23;20174;-68
2021/01/07 00:30:58;;;;;;;11.70;7.10;;;2.30;71.20;;;;;;6244992;23;20216;-68
2021/01/07 00:33:25;;;;;;;9.73;6.40;;;2.30;71.00;;;;;;6245041;23;20527;-68
2021/01/07 00:35:51;;;;;;;11.20;7.47;;;2.40;71.00;;;;;;6245254;23;20161;-67
2021/01/07 00:38:18;;;;;;;9.98;6.63;;;2.40;70.70;;;;;;6245653;23;20170;-71
2021/01/07 00:40:46;;;;;;;9.45;7.40;;;2.40;70.70;;;;;;6245165;23;20256;-67
2021/01/07 00:43:12;;;;;;;12.75;8.15;;;2.40;70.60;;;;;;6245592;23;20261;-67
2021/01/07 00:45:39;;;;;;;11.27;7.35;;;2.50;70.30;;;;;;6246166;23;20165;-67
2021/01/07 00:48:07;;;;;;;8.70;6.30;;;2.50;70.00;;;;;;6246227;23;20455;-67
2021/01/07 00:50:33;;;;;;;9.27;6.78;;;2.50;70.00;;;;;;6246356;23;20245;-68
2021/01/07 00:53:00;;;;;;;10.77;7.10;;;2.50;69.80;;;;;;6245410;23;20166;-67
2021/01/07 00:55:27;;;;;;;13.80;7.15;;;2.60;69.90;;;;;;6246439;23;20241;-68
2021/01/07 00:57:54;;;;;;;11.80;7.40;;;2.60;69.70;;;;;;6245960;23;20754;-67
2021/01/07 01:00:21;;;;;;;12.15;8.32;;;2.60;69.60;;;;;;6246111;23;20515;-69
2021/01/07 01:02:47;;;;;;;12.55;7.68;;;2.60;69.50;;;;;;6245855;23;20170;-67
2021/01/07 01:05:15;;;;;;;10.70;6.95;;;2.60;69.50;;;;;;6246337;23;20166;-68
2021/01/07 01:07:42;;;;;;;11.10;7.32;;;2.60;69.80;;;;;;6246261;23;20173;-67
2021/01/07 01:10:11;;;;;;;11.05;7.10;;;2.60;69.90;;;;;;6245901;23;20227;-68
2021/01/07 01:12:38;;;;;;;9.40;6.85;;;2.60;69.60;;;;;;6245787;23;20212;-68
2021/01/07 01:15:09;;;;;;;11.57;7.10;;;2.60;69.50;;;;;;6246069;23;20181;-67
2021/01/07 01:17:38;;;;;;;11.18;8.23;;;2.60;69.70;;;;;;6245426;23;20205;-67
2021/01/07 01:20:07;;;;;;;11.43;8.57;;;2.60;69.80;;;;;;6245776;23;20196;-67
2021/01/07 01:22:34;;;;;;;12.90;8.45;;;2.60;69.90;;;;;;6245346;23;20176;-67
2021/01/07 01:25:01;;;;;;;15.32;9.10;;;2.60;70.30;;;;;;6245828;23;20249;-69
2021/01/07 01:27:27;;;;;;;12.15;7.65;;;2.50;70.00;;;;;;6245355;23;20166;-69
2021/01/07 01:29:54;;;;;;;15.85;9.25;;;2.50;70.40;;;;;;6245531;23;20170;-68
2021/01/07 01:32:21;;;;;;;13.48;9.77;;;2.40;70.50;;;;;;6245906;23;20218;-67
2021/01/07 01:34:49;;;;;;;12.82;7.95;;;2.40;70.90;;;;;;6245722;23;20162;-68
2021/01/07 01:37:16;;;;;;;13.48;7.40;;;2.30;71.50;;;;;;6245948;23;20165;-69
2021/01/07 01:39:43;;;;;;;13.90;9.35;;;2.30;71.70;;;;;;6245658;23;20193;-69
2021/01/07 01:42:12;;;;;;;14.23;9.02;;;2.30;71.40;;;;;;6245640;23;20501;-68
2021/01/07 01:44:38;;;;;;;14.20;7.93;;;2.20;71.90;;;;;;6245725;23;20165;-68
2021/01/07 01:47:05;;;;;;;11.40;7.20;;;2.10;72.20;;;;;;6245400;23;20188;-68
2021/01/07 01:49:32;;;;;;;14.38;9.05;;;2.00;72.40;;;;;;6245753;23;20485;-68
2021/01/07 01:51:59;;;;;;;12.63;7.53;;;2.00;73.20;;;;;;6244875;23;20165;-68
2021/01/07 01:54:26;;;;;;;12.48;6.80;;;1.80;73.50;;;;;;6245945;23;20179;-69
2021/01/07 01:56:55;;;;;;;11.68;7.82;;;1.70;73.90;;;;;;6245284;23;20249;-68
2021/01/07 01:59:24;;;;;;;10.55;6.95;;;1.70;74.40;;;;;;6245755;23;20196;-68
2021/01/07 02:01:51;;;;;;;13.05;8.65;;;1.70;74.60;;;;;;6245622;23;20208;-69
2021/01/07 02:04:17;;;;;;;10.75;7.38;;;1.70;74.60;;;;;;6245951;23;20166;-67
2021/01/07 02:06:46;;;;;;;11.98;7.00;;;1.70;74.90;;;;;;6245639;23;20165;-68
2021/01/07 02:09:13;;;;;;;12.52;8.80;;;1.70;75.10;;;;;;6245918;23;20214;-67
2021/01/07 02:11:40;;;;;;;11.95;8.20;;;1.70;74.40;;;;;;6245651;23;20204;-68
2021/01/07 02:14:07;;;;;;;11.88;7.88;;;1.70;74.50;;;;;;6245247;23;20632;-67
2021/01/07 02:16:34;;;;;;;9.50;7.15;;;1.80;74.50;;;;;;6244849;23;20190;-68
2021/01/07 02:19:01;;;;;;;11.00;7.43;;;1.80;74.60;;;;;;6244617;23;20200;-70
2021/01/07 02:21:28;;;;;;;13.55;8.18;;;1.80;73.80;;;;;;6245536;23;20161;-68
2021/01/07 02:23:56;;;;;;;13.25;8.40;;;1.80;74.10;;;;;;6244952;23;20507;-68
2021/01/07 02:26:23;;;;;;;11.18;7.93;;;1.90;74.20;;;;;;6245549;23;20162;-68
2021/01/07 02:28:51;;;;;;;10.98;6.93;;;1.90;74.10;;;;;;6244937;23;20249;-68
2021/01/07 02:31:18;;;;;;;10.38;7.00;;;1.90;73.90;;;;;;6245547;23;20529;-69
2021/01/07 02:33:45;;;;;;;10.20;6.95;;;1.90;73.80;;;;;;6245134;23;20169;-67
2021/01/07 02:36:12;;;;;;;13.30;8.15;;;2.00;74.10;;;;;;6245116;23;20166;-67
2021/01/07 02:38:39;;;;;;;11.57;7.63;;;2.00;73.80;;;;;;6244593;23;20640;-68
2021/01/07 02:41:06;;;;;;;13.57;9.18;;;2.10;73.70;;;;;;6244627;23;20166;-68
2021/01/07 02:43:32;;;;;;;11.15;9.35;;;2.10;73.50;;;;;;6244711;23;20161;-68
2021/01/07 02:45:59;;;;;;;11.65;7.32;;;2.10;73.20;;;;;;6244999;23;20166;-68
2021/01/07 02:48:26;;;;;;;11.77;8.13;;;2.10;73.10;;;;;;6245399;23;20476;-67
2021/01/07 02:50:56;;;;;;;10.45;7.50;;;2.10;73.20;;;;;;6245379;23;20177;-68
2021/01/07 02:53:22;;;;;;;11.82;7.13;;;2.10;73.20;;;;;;6244286;23;20683;-69
2021/01/07 02:55:49;;;;;;;10.60;7.30;;;2.10;73.30;;;;;;6245414;23;20169;-68
2021/01/07 02:58:16;;;;;;;11.55;8.95;;;2.10;73.40;;;;;;6245161;23;20172;-68
2021/01/07 03:00:43;;;;;;;10.32;6.72;;;2.10;73.60;;;;;;6244714;23;20193;-68
2021/01/07 03:03:09;;;;;;;12.05;7.90;;;2.10;73.50;;;;;;6244893;23;20166;-68
2021/01/07 03:05:36;;;;;;;11.38;7.93;;;2.10;73.00;;;;;;6244848;23;20666;-68
2021/01/07 03:08:02;;;;;;;15.13;9.70;;;2.10;73.10;;;;;;6245028;23;20459;-68
2021/01/07 03:10:30;;;;;;;14.85;9.55;;;2.10;72.80;;;;;;6242346;23;20232;-68
2021/01/07 03:12:57;;;;;;;12.18;8.18;;;2.20;73.00;;;;;;6243543;23;20604;-69
2021/01/07 03:15:25;;;;;;;14.00;9.38;;;2.10;72.90;;;;;;6244598;23;20169;-68
2021/01/07 03:17:51;;;;;;;16.58;9.32;;;2.10;73.10;;;;;;6245160;23;20157;-68
2021/01/07 03:20:22;;;;;;;12.70;8.55;;;2.20;73.20;;;;;;6244673;23;20651;-69
2021/01/07 03:22:49;;;;;;;13.45;8.82;;;2.20;73.00;;;;;;6244025;23;20158;-69
2021/01/07 03:25:20;;;;;;;16.40;9.48;;;2.20;73.00;;;;;;6245121;23;20216;-68
2021/01/07 03:27:47;;;;;;;17.67;10.45;;;2.20;72.80;;;;;;6244175;23;20158;-69
2021/01/07 03:30:15;;;;;;;16.85;10.25;;;2.10;73.00;;;;;;6244845;23;20182;-68
2021/01/07 03:32:42;;;;;;;16.55;10.35;;;2.20;73.00;;;;;;6244305;23;20166;-67
2021/01/07 03:35:10;;;;;;;14.80;10.60;;;2.20;72.30;;;;;;6243157;23;20173;-68
2021/01/07 03:37:36;;;;;;;14.50;10.52;;;2.10;72.80;;;;;;6244968;23;20197;-68
2021/01/07 03:40:04;;;;;;;14.18;8.45;;;2.00;72.90;;;;;;6245014;23;20190;-68
2021/01/07 03:42:30;;;;;;;21.63;8.70;;;2.00;72.50;;;;;;6244492;23;20190;-68
2021/01/07 03:44:57;;;;;;;14.52;8.88;;;2.00;72.20;;;;;;6244215;23;20162;-68
2021/01/07 03:47:24;;;;;;;14.50;8.40;;;2.00;72.60;;;;;;6244543;23;20628;-68
2021/01/07 03:49:51;;;;;;;17.88;9.23;;;2.00;72.90;;;;;;6244942;23;20170;-69
2021/01/07 03:52:17;;;;;;;15.55;9.57;;;1.90;72.80;;;;;;6244758;23;20162;-68
2021/01/07 03:54:44;;;;;;;13.73;8.32;;;1.90;73.10;;;;;;6244713;23;20162;-68
2021/01/07 03:57:10;;;;;;;15.68;7.90;;;1.90;73.00;;;;;;6244696;23;20551;-68
2021/01/07 03:59:37;;;;;;;13.48;8.00;;;1.90;72.80;;;;;;6244916;23;20193;-68
2021/01/07 04:02:03;;;;;;;13.00;7.85;;;1.90;72.80;;;;;;6244419;23;20244;-68
2021/01/07 04:04:31;;;;;;;13.48;8.93;;;1.90;72.80;;;;;;6245181;23;20166;-69
2021/01/07 04:06:57;;;;;;;14.18;9.02;;;1.90;72.40;;;;;;6244274;23;20162;-68
2021/01/07 04:09:25;;;;;;;12.95;8.20;;;1.90;72.40;;;;;;6245053;23;20166;-68
2021/01/07 04:11:52;;;;;;;12.25;8.50;;;2.00;72.30;;;;;;6246436;23;20511;-68
2021/01/07 04:14:18;;;;;;;13.40;8.68;;;2.10;72.40;;;;;;6246499;23;20166;-68
2021/01/07 04:16:45;;;;;;;12.85;7.68;;;2.00;72.20;;;;;;6246641;23;20268;-68
2021/01/07 04:19:11;;;;;;;16.67;9.80;;;2.10;72.20;;;;;;6246836;23;20194;-68
2021/01/07 04:21:45;;;;;;;13.60;8.90;;;2.10;71.90;;;;;;6247077;23;20166;-68
2021/01/07 04:24:13;;;;;;;14.73;10.52;;;2.10;71.70;;;;;;6246729;23;20479;-68
2021/01/07 04:26:45;;;;;;;15.32;8.30;;;2.10;71.70;;;;;;6247448;23;20166;-68
2021/01/07 04:29:12;;;;;;;12.98;8.05;;;2.00;71.40;;;;;;6246614;23;20149;-68
2021/01/07 04:31:39;;;;;;;14.20;7.82;;;2.10;71.90;;;;;;6246835;23;20166;-68
2021/01/07 04:34:06;;;;;;;14.57;10.00;;;2.00;71.70;;;;;;6246304;23;20173;-68
2021/01/07 04:36:32;;;;;;;14.82;8.60;;;1.90;72.00;;;;;;6246974;23;20166;-68
2021/01/07 04:39:00;;;;;;;13.18;7.45;;;1.90;72.00;;;;;;6245861;23;20188;-68
2021/01/07 04:41:26;;;;;;;12.30;7.70;;;1.90;71.80;;;;;;6246322;23;20173;-70
2021/01/07 04:43:56;;;;;;;10.40;6.88;;;1.80;72.20;;;;;;6246013;23;20166;-68
2021/01/07 04:46:23;;;;;;;13.27;8.27;;;1.80;72.30;;;;;;6246819;23;20493;-68
2021/01/07 04:48:51;;;;;;;15.43;8.40;;;1.90;72.10;;;;;;6245969;23;20166;-68
2021/01/07 04:51:18;;;;;;;14.73;8.90;;;1.80;71.80;;;;;;6246463;23;20659;-68
2021/01/07 04:53:45;;;;;;;12.10;8.27;;;1.70;72.30;;;;;;6246163;23;20165;-68
2021/01/07 04:56:13;;;;;;;11.27;7.45;;;1.70;72.60;;;;;;6246304;23;20173;-67
2021/01/07 04:58:39;;;;;;;12.90;8.80;;;1.70;72.40;;;;;;6246072;23;20180;-68
2021/01/07 05:01:06;;;;;;;10.82;7.07;;;1.80;72.80;;;;;;6246337;23;20166;-68
2021/01/07 05:03:34;;;;;;;16.65;9.70;;;1.80;72.50;;;;;;6246424;23;20166;-68
2021/01/07 05:06:01;;;;;;;9.98;7.35;;;1.90;72.20;;;;;;6246690;23;20228;-68
2021/01/07 05:08:28;;;;;;;12.43;7.97;;;1.90;72.10;;;;;;6245805;23;20173;-68
2021/01/07 05:10:57;;;;;;;15.52;9.07;;;2.00;72.10;;;;;;6246386;23;20211;-68
2021/01/07 05:13:25;;;;;;;10.82;8.00;;;2.00;71.90;;;;;;6245710;23;20174;-68
2021/01/07 05:15:51;;;;;;;15.40;9.73;;;2.00;71.60;;;;;;6246417;23;20193;-68
2021/01/07 05:18:18;;;;;;;12.88;8.43;;;2.00;71.50;;;;;;6246219;23;20197;-68
2021/01/07 05:20:45;;;;;;;19.25;8.57;;;2.00;71.40;;;;;;6246546;23;20279;-67
2021/01/07 05:23:12;;;;;;;14.05;8.35;;;2.00;71.40;;;;;;6245226;23;20162;-68
2021/01/07 05:25:39;;;;;;;14.02;8.65;;;2.00;71.60;;;;;;6246007;23;20173;-68
2021/01/07 05:28:06;;;;;;;11.68;8.85;;;2.00;71.40;;;;;;6245169;23;20205;-68
2021/01/07 05:30:35;;;;;;;13.98;8.77;;;2.00;71.50;;;;;;6245815;23;20177;-68
2021/01/07 05:33:03;;;;;;;12.45;8.65;;;2.00;71.60;;;;;;6245524;23;20181;-67
2021/01/07 05:35:30;;;;;;;12.25;7.10;;;2.00;71.50;;;;;;6245964;23;20173;-68
2021/01/07 05:37:58;;;;;;;11.70;8.40;;;2.00;72.40;;;;;;6245242;23;20245;-71
2021/01/07 05:40:25;;;;;;;14.65;9.20;;;2.00;71.70;;;;;;6245693;23;20186;-68
2021/01/07 05:42:58;;;;;;;12.55;7.47;;;2.00;71.70;;;;;;6246081;23;20162;-69
2021/01/07 05:45:34;;;;;;;14.98;10.10;;;2.00;71.60;;;;;;6246179;23;20154;-68
2021/01/07 05:48:02;;;;;;;14.38;8.30;;;2.00;71.50;;;;;;6245741;23;20204;-69
2021/01/07 05:50:34;;;;;;;13.15;8.52;;;1.90;71.50;;;;;;6245624;23;20165;-68
2021/01/07 05:53:02;;;;;;;10.90;6.32;;;1.90;71.60;;;;;;6245545;23;20636;-68
2021/01/07 05:55:29;;;;;;;10.68;8.40;;;1.90;71.30;;;;;;6246050;23;20162;-68
2021/01/07 05:57:58;;;;;;;13.43;8.50;;;1.90;71.50;;;;;;6245529;23;20220;-69
2021/01/07 06:00:29;;;;;;;12.68;7.78;;;1.90;71.60;;;;;;6245523;23;20189;-67
2021/01/07 06:02:58;;;;;;;17.75;9.65;;;1.90;71.70;;;;;;6245505;23;20150;-68
2021/01/07 06:05:26;;;;;;;13.13;7.35;;;1.80;71.80;;;;;;6245859;23;20166;-67
2021/01/07 06:07:54;;;;;;;11.00;7.22;;;1.80;72.00;;;;;;6245771;23;20545;-68
2021/01/07 06:10:22;;;;;;;12.07;7.80;;;1.80;72.20;;;;;;6245831;23;20185;-68
2021/01/07 06:12:52;;;;;;;12.70;8.57;;;1.80;72.20;;;;;;6245502;23;20161;-68
2021/01/07 06:15:20;;;;;;;13.20;8.40;;;1.80;72.20;;;;;;6245792;23;20454;-68
2021/01/07 06:17:48;;;;;;;15.18;8.65;;;1.70;72.10;;;;;;6245280;23;20170;-68
2021/01/07 06:20:16;;;;;;;12.32;7.05;;;1.70;72.20;;;;;;6245682;23;20216;-68
2021/01/07 06:22:48;;;;;;;14.85;9.35;;;1.70;71.80;;;;;;6245190;23;20220;-68
2021/01/07 06:25:16;;;;;;;12.13;8.32;;;1.70;72.20;;;;;;6245635;23;20166;-68
2021/01/07 06:27:44;;;;;;;13.20;8.65;;;1.70;72.60;;;;;;6245562;23;20177;-69
2021/01/07 06:30:34;;;;;;;12.15;8.00;;;1.60;72.30;;;;;;6245094;23;20185;-69
2021/01/07 06:33:10;;;;;;;14.90;9.35;;;1.60;72.70;;;;;;6244918;23;20178;-69
2021/01/07 06:35:41;;;;;;;10.93;8.02;;;1.60;72.70;;;;;;6245197;23;20248;-68
2021/01/07 06:38:13;;;;;;;15.38;9.18;;;1.60;72.40;;;;;;6245613;23;20537;-68
2021/01/07 06:40:41;;;;;;;13.35;9.57;;;1.50;72.10;;;;;;6245676;23;20188;-69
2021/01/07 06:43:17;;;;;;;15.07;9.48;;;1.50;72.20;;;;;;6244843;23;20686;-68
2021/01/07 06:45:52;;;;;;;13.48;8.95;;;1.50;72.30;;;;;;6245444;23;20153;-68
2021/01/07 06:48:33;;;;;;;13.10;8.35;;;1.50;72.50;;;;;;6245303;23;20165;-68
2021/01/07 06:51:01;;;;;;;13.68;8.55;;;1.50;72.30;;;;;;6245711;23;20158;-69
2021/01/07 06:53:34;;;;;;;12.85;8.15;;;1.40;72.30;;;;;;6245312;23;20487;-68
2021/01/07 06:56:22;;;;;;;14.88;9.60;;;1.50;72.00;;;;;;6245338;23;20161;-68
2021/01/07 06:58:50;;;;;;;12.95;9.10;;;1.50;72.30;;;;;;6244341;23;20166;-69
2021/01/07 07:01:18;;;;;;;15.07;10.02;;;1.50;72.40;;;;;;6245324;23;20256;-69
2021/01/07 07:03:49;;;;;;;16.77;10.25;;;1.40;71.80;;;;;;6244994;23;20249;-69
2021/01/07 07:06:18;;;;;;;16.73;10.35;;;1.40;71.30;;;;;;6245337;23;20204;-68
2021/01/07 07:08:49;;;;;;;14.85;8.68;;;1.40;71.70;;;;;;6245042;23;20621;-68
2021/01/07 07:11:50;;;;;;;13.93;8.98;;;1.40;72.00;;;;;;6239612;23;20165;-71
2021/01/07 07:14:21;;;;;;;15.75;8.52;;;1.40;72.20;;;;;;6222314;23;20495;-69
2021/01/07 07:16:50;;;;;;;15.43;9.15;;;1.30;71.80;;;;;;6242782;23;20197;-71
2021/01/07 07:19:25;;;;;;;10.93;7.88;;;1.30;71.90;;;;;;6244452;23;20553;-68
2021/01/07 07:22:00;;;;;;;13.80;7.65;;;1.30;72.00;;;;;;6237509;23;20489;-69
2021/01/07 07:24:35;;;;;;;15.15;8.43;;;1.20;72.40;;;;;;6243504;23;20236;-68
2021/01/07 07:27:08;;;;;;;12.20;6.95;;;1.10;72.80;;;;;;6240042;23;20184;-71
2021/01/07 07:29:37;;;;;;;13.50;8.55;;;1.00;72.90;;;;;;6243565;23;20154;-69
2021/01/07 07:32:20;;;;;;;13.80;7.35;;;1.10;72.80;;;;;;6242872;23;20172;-70
2021/01/07 07:34:48;;;;;;;13.80;8.93;;;1.20;72.30;;;;;;6240241;23;20488;-71
2021/01/07 07:37:18;;;;;;;11.95;7.55;;;1.20;72.10;;;;;;6243054;23;20193;-70
2021/01/07 07:39:49;;;;;;;13.63;8.50;;;1.30;71.60;;;;;;6243324;23;20244;-69
2021/01/07 07:42:16;;;;;;;11.52;7.25;;;1.30;71.50;;;;;;6243323;23;20154;-69
2021/01/07 07:44:43;;;;;;;10.80;7.30;;;1.40;71.40;;;;;;6243430;23;20500;-70
2021/01/07 07:47:10;;;;;;;9.43;6.75;;;1.50;70.90;;;;;;6243863;23;20173;-70
2021/01/07 07:49:37;;;;;;;12.93;7.68;;;1.80;71.60;;;;;;6245531;23;20165;-69
2021/01/07 07:52:04;;;;;;;14.80;8.00;;;2.20;70.70;;;;;;6245351;23;20232;-71
2021/01/07 07:54:30;;;;;;;10.07;7.15;;;2.60;69.30;;;;;;6245359;23;20173;-69
2021/01/07 07:57:01;;;;;;;8.57;6.15;;;2.90;67.30;;;;;;6244975;23;20227;-70
2021/01/07 07:59:28;;;;;;;9.98;7.35;;;3.20;66.90;;;;;;6245030;23;20189;-70
2021/01/07 08:01:55;;;;;;;10.90;6.45;;;3.50;65.30;;;;;;6244680;23;20165;-70
2021/01/07 08:04:23;;;;;;;11.60;6.60;;;3.80;61.90;;;;;;6245006;23;20198;-70
2021/01/07 08:06:51;;;;;;;11.40;6.55;;;3.90;61.20;;;;;;6244621;23;20245;-70
2021/01/07 08:09:20;;;;;;;8.00;5.88;;;4.00;60.50;;;;;;6245036;23;20166;-74
2021/01/07 08:11:51;;;;;;;9.02;6.53;;;4.10;61.10;;;;;;6244493;23;20628;-70
2021/01/07 08:14:21;;;;;;;9.10;5.90;;;4.10;59.50;;;;;;6242150;23;20216;-70
2021/01/07 08:16:49;;;;;;;9.93;5.68;;;4.00;59.00;;;;;;6243952;23;20194;-69
2021/01/07 08:19:24;;;;;;;10.93;6.60;;;3.90;59.90;;;;;;6244149;23;20476;-69
2021/01/07 08:21:52;;;;;;;11.60;6.03;;;3.90;59.70;;;;;;6243555;23;20211;-69
2021/01/07 08:24:24;;;;;;;9.57;6.75;;;3.80;59.80;;;;;;6244177;23;20162;-70
2021/01/07 08:27:16;;;;;;;7.13;5.15;;;3.70;59.50;;;;;;6243831;23;20671;-70
2021/01/07 08:29:46;;;;;;;8.02;6.00;;;3.70;59.50;;;;;;6244440;23;20154;-69
2021/01/07 08:32:17;;;;;;;10.57;5.60;;;3.50;59.80;;;;;;6243832;23;20180;-70
2021/01/07 08:34:45;;;;;;;7.78;5.35;;;3.40;59.60;;;;;;6243824;23;20158;-71
2021/01/07 08:37:13;;;;;;;11.15;5.00;;;3.40;59.80;;;;;;6244243;23;20472;-69
2021/01/07 08:39:41;;;;;;;9.50;6.70;;;3.40;60.10;;;;;;6243879;23;20694;-67
2021/01/07 08:42:08;;;;;;;8.80;6.22;;;3.40;59.80;;;;;;6244193;23;20169;-69
2021/01/07 08:44:35;;;;;;;9.77;6.00;;;3.50;60.10;;;;;;6243100;23;20248;-70
2021/01/07 08:47:21;;;;;;;8.32;5.38;;;3.60;60.00;;;;;;6235534;23;20215;-72
2021/01/07 08:50:07;;;;;;;9.40;6.30;;;4.00;59.80;;;;;;6238639;23;20189;-69
2021/01/07 08:52:56;;;;;;;7.88;5.70;;;4.50;58.70;;;;;;6241394;23;20189;-69
2021/01/07 08:55:46;;;;;;;8.13;5.43;;;5.00;57.60;;;;;;6242814;23;20162;-69
2021/01/07 08:58:26;;;;;;;7.38;5.18;;;5.30;56.80;;;;;;6242827;23;20153;-69
2021/01/07 09:01:00;;;;;;;7.65;5.68;;;5.60;55.90;;;;;;6242666;23;20225;-69
2021/01/07 09:03:37;;;;;;;9.18;6.30;;;5.80;55.30;;;;;;6243371;23;20207;-71
2021/01/07 09:06:11;;;;;;;9.98;5.82;;;6.10;54.20;;;;;;6243713;23;20251;-71
2021/01/07 09:08:43;;;;;;;9.77;6.95;;;6.30;53.30;;;;;;6244155;23;20193;-69
2021/01/07 09:11:25;;;;;;;9.35;6.43;;;6.50;53.50;;;;;;6243290;23;20150;-69
2021/01/07 09:14:03;;;;;;;7.72;5.60;;;6.80;53.00;;;;;;6243361;23;20158;-72
2021/01/07 09:16:35;;;;;;;9.90;6.05;;;7.10;51.80;;;;;;6242994;23;20229;-69
2021/01/07 09:19:13;;;;;;;6.72;5.35;;;7.30;50.80;;;;;;6243982;23;20160;-69
2021/01/07 09:21:59;;;;;;;15.00;6.00;;;7.40;50.30;;;;;;6243335;23;20154;-69
2021/01/07 09:24:32;;;;;;;9.10;6.40;;;7.50;48.50;;;;;;6243467;23;20158;-69
2021/01/07 09:27:08;;;;;;;7.15;5.75;;;7.40;49.20;;;;;;6241247;23;20601;-69
2021/01/07 09:29:38;;;;;;;11.45;5.28;;;7.50;48.20;;;;;;6242962;23;20189;-70
2021/01/07 09:32:12;;;;;;;6.80;5.25;;;7.60;47.30;;;;;;6243452;23;20478;-69
2021/01/07 09:34:40;;;;;;;6.88;4.70;;;7.60;47.70;;;;;;6243380;23;20206;-71
2021/01/07 09:37:16;;;;;;;8.23;4.50;;;7.80;47.20;;;;;;6242933;23;20170;-69
2021/01/07 09:40:12;;;;;;;9.55;4.70;;;8.20;46.90;;;;;;6243230;23;20238;-68
2021/01/07 09:42:43;;;;;;;7.25;4.60;;;8.40;45.40;;;;;;6242237;23;20185;-69
2021/01/07 09:45:15;;;;;;;6.30;5.32;;;8.50;45.00;;;;;;6243117;23;20267;-69
2021/01/07 09:47:56;;;;;;;6.63;4.43;;;8.50;44.90;;;;;;6243311;23;20236;-70
2021/01/07 09:50:33;;;;;;;7.68;5.07;;;8.70;44.00;;;;;;6242915;23;20204;-70
2021/01/07 09:53:04;;;;;;;4.90;4.25;;;9.00;43.10;;;;;;6243080;23;20536;-70
2021/01/07 09:55:36;;;;;;;6.15;4.55;;;9.30;42.60;;;;;;6241920;23;20154;-71
2021/01/07 09:58:05;;;;;;;6.15;4.72;;;9.50;42.20;;;;;;6243269;23;20612;-70
2021/01/07 10:00:39;;;;;;;7.32;4.95;;;9.70;40.50;;;;;;6238569;23;20193;-70
2021/01/07 10:03:06;;;;;;;5.50;4.65;;;9.80;40.00;;;;;;6243148;23;20157;-70
2021/01/07 10:05:36;;;;;;;6.93;4.40;;;10.00;39.60;;;;;;6242789;23;20169;-70
2021/01/07 10:08:07;;;;;;;6.68;4.13;;;10.10;38.70;;;;;;6242616;23;20170;-70
2021/01/07 10:10:39;;;;;;;5.30;3.85;;;10.20;38.30;;;;;;6242763;23;20237;-70
2021/01/07 10:13:11;;;;;;;7.97;4.15;;;10.40;38.80;;;;;;6220633;23;20154;-74
2021/01/07 10:15:49;;;;;;;4.65;3.50;;;10.70;37.20;;;;;;6240496;23;20300;-68
2021/01/07 10:18:26;;;;;;;5.07;4.10;;;10.90;37.10;;;;;;6240630;23;20623;-68
2021/01/07 10:21:00;;;;;;;6.45;4.18;;;11.10;37.00;;;;;;6242841;23;20192;-67
2021/01/07 10:23:34;;;;;;;6.25;4.00;;;11.30;36.00;;;;;;6242666;23;20154;-68
2021/01/07 10:26:12;;;;;;;4.75;4.20;;;11.40;36.00;;;;;;6242819;23;20162;-68
2021/01/07 10:28:44;;;;;;;4.68;3.63;;;11.60;36.70;;;;;;6241086;23;20168;-68
2021/01/07 10:31:12;;;;;;;4.85;4.30;;;12.00;36.60;;;;;;6243227;23;20154;-69
2021/01/07 10:33:50;;;;;;;6.03;4.75;;;12.20;35.00;;;;;;6237406;23;20169;-69
2021/01/07 10:36:22;;;;;;;6.78;4.32;;;12.30;34.00;;;;;;6242965;23;20165;-70
2021/01/07 10:38:59;;;;;;;6.00;4.20;;;12.40;33.70;;;;;;6242567;23;20154;-70
2021/01/07 10:41:34;;;;;;;6.20;4.45;;;12.70;33.70;;;;;;6241822;23;20181;-69
2021/01/07 10:44:08;;;;;;;6.00;3.90;;;12.70;32.50;;;;;;6241853;23;20154;-69
2021/01/07 10:46:42;;;;;;;5.70;3.88;;;12.70;33.30;;;;;;6242165;23;20252;-71
2021/01/07 10:49:19;;;;;;;5.28;3.80;;;12.90;32.20;;;;;;6242202;23;20252;-69
2021/01/07 10:52:19;;;;;;;5.70;4.10;;;12.70;31.80;;;;;;6242693;23;20164;-69
2021/01/07 10:55:05;;;;;;;6.35;4.13;;;12.80;32.50;;;;;;6242578;23;20567;-69
2021/01/07 10:57:57;;;;;;;6.55;4.07;;;13.10;31.70;;;;;;6242486;23;20150;-69
2021/01/07 11:00:37;;;;;;;6.40;4.18;;;13.30;31.10;;;;;;6242838;23;20185;-69
2021/01/07 11:03:43;;;;;;;6.78;3.85;;;13.50;30.80;;;;;;6242379;23;20158;-70
2021/01/07 11:06:17;;;;;;;5.70;4.32;;;13.80;30.60;;;;;;6165215;23;20172;-69
2021/01/07 11:08:55;;;;;;;7.30;4.25;;;14.00;30.10;;;;;;6239350;23;20470;-69
2021/01/07 11:11:30;;;;;;;6.90;4.55;;;14.10;29.60;;;;;;6241922;23;20212;-71
2021/01/07 11:14:05;;;;;;;6.20;3.72;;;14.10;29.90;;;;;;6243060;23;20475;-71
2021/01/07 11:16:41;;;;;;;4.13;3.65;;;14.30;29.80;;;;;;6241914;23;20199;-70
2021/01/07 11:19:15;;;;;;;6.18;3.63;;;14.40;29.80;;;;;;6242654;23;20232;-69
2021/01/07 11:21:59;;;;;;;6.82;3.90;;;14.50;29.00;;;;;;6243356;23;20158;-74
2021/01/07 11:24:28;;;;;;;6.15;3.50;;;14.40;29.10;;;;;;6244824;23;20233;-71
2021/01/07 11:27:03;;;;;;;5.93;3.60;;;14.50;29.10;;;;;;6244236;23;20616;-69
2021/01/07 11:29:38;;;;;;;5.47;3.20;;;14.70;28.90;;;;;;6244506;23;20184;-70
2021/01/07 11:32:05;;;;;;;4.45;3.00;;;14.70;29.00;;;;;;6244687;23;20477;-69
2021/01/07 11:34:33;;;;;;;4.95;3.78;;;14.70;28.90;;;;;;6244664;23;20177;-69
2021/01/07 11:37:13;;;;;;;6.03;3.30;;;14.70;28.60;;;;;;6244905;23;20527;-70
2021/01/07 11:39:58;;;;;;;5.40;4.10;;;14.80;29.00;;;;;;6244672;23;20177;-68
2021/01/07 11:42:37;;;;;;;5.07;4.28;;;15.00;28.70;;;;;;6244111;23;20269;-68
2021/01/07 11:45:18;;;;;;;5.93;4.40;;;15.30;27.90;;;;;;6245002;23;20154;-69
2021/01/07 11:47:54;;;;;;;5.82;3.50;;;15.40;27.60;;;;;;6245274;23;20151;-69
2021/01/07 11:50:42;;;;;;;5.30;4.05;;;15.20;27.60;;;;;;6245075;23;20153;-70
2021/01/07 11:53:09;;;;;;;4.63;3.20;;;15.10;28.30;;;;;;6244446;23;20154;-69
2021/01/07 11:55:38;;;;;;;9.00;4.60;;;15.40;28.20;;;;;;6244113;23;20172;-73
2021/01/07 11:58:23;;;;;;;5.10;3.90;;;15.80;27.80;;;;;;6243995;23;20201;-69
2021/01/07 12:00:57;;;;;;;5.60;4.20;;;15.70;27.20;;;;;;6244766;23;20949;-70
2021/01/07 12:03:31;;;;;;;7.00;4.40;;;15.20;27.00;;;;;;6244777;23;20389;-70
2021/01/07 12:06:02;;;;;;;5.93;5.03;;;14.80;27.20;;;;;;6244970;23;20200;-70
2021/01/07 12:08:38;;;;;;;6.88;4.78;;;14.50;28.20;;;;;;6244982;23;20150;-70
2021/01/07 12:11:08;;;;;;;6.82;4.57;;;14.00;28.20;;;;;;6245976;23;20223;-70
2021/01/07 12:13:41;;;;;;;5.45;3.80;;;13.70;29.10;;;;;;6242803;23;20166;-70
2021/01/07 12:16:18;;;;;;;6.15;4.30;;;13.40;28.50;;;;;;6245198;23;20193;-70
2021/01/07 12:18:50;;;;;;;7.80;4.00;;;12.90;28.70;;;;;;6246483;23;20154;-70
2021/01/07 12:21:18;;;;;;;8.95;5.15;;;12.40;28.90;;;;;;6246054;23;20177;-69
2021/01/07 12:23:46;;;;;;;7.90;5.50;;;11.90;29.20;;;;;;6246813;23;20235;-69
2021/01/07 12:26:18;;;;;;;6.25;4.85;;;11.50;29.80;;;;;;6247147;23;20169;-69
2021/01/07 12:28:51;;;;;;;5.82;5.05;;;11.00;30.30;;;;;;6247066;23;20596;-69
2021/01/07 12:31:19;;;;;;;8.25;5.70;;;10.60;31.20;;;;;;6246705;23;20158;-69
2021/01/07 12:34:03;;;;;;;5.90;4.20;;;10.20;31.90;;;;;;6246463;23;20165;-69
2021/01/07 12:36:48;;;;;;;4.95;4.05;;;9.90;33.50;;;;;;6246609;23;20232;-69
2021/01/07 12:39:32;;;;;;;7.57;4.75;;;9.80;34.20;;;;;;6247361;23;20150;-69
2021/01/07 12:42:03;;;;;;;9.48;4.82;;;9.60;34.30;;;;;;6246415;23;20200;-68
2021/01/07 12:44:38;;;;;;;11.82;4.93;;;9.40;35.10;;;;;;6246753;23;20154;-69
2021/01/07 12:47:10;;;;;;;6.43;4.47;;;9.40;35.40;;;;;;6246824;23;20150;-69
2021/01/07 12:49:39;;;;;;;6.57;5.45;;;9.40;35.40;;;;;;6245902;23;20393;-69
2021/01/07 12:52:07;;;;;;;6.47;5.10;;;9.40;36.10;;;;;;6246235;23;20165;-69
2021/01/07 12:54:44;;;;;;;6.68;5.22;;;9.30;35.80;;;;;;6246709;23;20170;-69
2021/01/07 12:57:18;;;;;;;5.97;5.20;;;9.10;36.10;;;;;;6246613;23;20158;-69
2021/01/07 12:59:59;;;;;;;10.88;5.03;;;8.90;36.60;;;;;;6246741;23;20178;-69
2021/01/07 13:02:31;;;;;;;8.05;5.15;;;8.70;37.00;;;;;;6246205;23;20153;-69
2021/01/07 13:05:09;;;;;;;11.38;6.68;;;8.70;37.60;;;;;;6246772;23;20150;-68
2021/01/07 13:07:39;;;;;;;11.75;7.63;;;8.60;37.40;;;;;;6246786;23;20524;-68